Time;durP1;ratioP1;P1;durP2;ratioP2;P2;SDS_P1;SDS_P2;PMS_P1;PMS_P2;Temp;Humidity;BMP_temperature;BMP_pressure;BME280_temperature;BME280_humidity;BME280_pressure;Samples;Min_cycle;Max_cycle;Signal;HPM_P1;HPM_P2
2023/09/28 00:01:40;;;;;;;13.25;6.97;;;;;;;12.77;81.57;100685.13;5074721;28;20050;-37
2023/09/28 00:04:06;;;;;;;14.45;7.30;;;;;;;12.72;81.34;100679.16;5080211;28;20055;-36
2023/09/28 00:06:32;;;;;;;16.02;7.55;;;;;;;12.76;81.48;100686.03;5066015;28;20433;-37
2023/09/28 00:08:58;;;;;;;23.52;8.95;;;;;;;12.75;81.50;100681.72;5078518;28;20035;-36
2023/09/28 00:11:24;;;;;;;13.32;7.18;;;;;;;12.83;80.96;100687.56;5072874;28;20050;-37
2023/09/28 00:13:49;;;;;;;14.70;7.22;;;;;;;12.87;80.84;100686.59;5063805;28;20184;-37
2023/09/28 00:16:15;;;;;;;17.33;7.60;;;;;;;12.90;80.32;100681.28;5070618;28;20497;-37
2023/09/28 00:18:41;;;;;;;18.58;7.70;;;;;;;12.97;80.26;100690.66;5076024;28;20040;-39
2023/09/28 00:21:07;;;;;;;20.05;8.70;;;;;;;12.66;80.12;100629.78;5072927;28;20191;-37
2023/09/28 00:23:33;;;;;;;18.45;7.60;;;;;;;13.01;79.75;100686.22;5069967;28;20049;-37
2023/09/28 00:25:59;;;;;;;18.17;7.18;;;;;;;13.02;79.64;100678.34;5063025;28;20040;-38
2023/09/28 00:28:25;;;;;;;19.52;8.68;;;;;;;13.07;79.52;100686.91;5066216;28;20040;-37
2023/09/28 00:30:52;;;;;;;22.98;8.90;;;;;;;13.10;79.92;100675.50;5071683;28;20040;-37
2023/09/28 00:33:18;;;;;;;22.10;9.00;;;;;;;12.95;80.08;100642.00;5072918;28;20044;-37
2023/09/28 00:35:44;;;;;;;20.80;8.13;;;;;;;13.13;80.03;100667.63;5076018;28;20046;-36
2023/09/28 00:38:10;;;;;;;21.00;8.20;;;;;;;13.13;80.00;100668.47;5073530;28;20036;-37
2023/09/28 00:40:39;;;;;;;17.52;8.43;;;;;;;12.88;80.07;100640.44;5070561;28;20131;-37
2023/09/28 00:43:06;;;;;;;32.20;12.48;;;;;;;13.09;80.50;100681.59;5079575;28;20430;-37
2023/09/28 00:45:32;;;;;;;31.48;10.80;;;;;;;13.10;80.81;100686.78;5079358;28;20044;-38
2023/09/28 00:48:05;;;;;;;20.60;8.60;;;;;;;13.10;80.94;100692.03;5071428;28;20039;-36
2023/09/28 00:50:31;;;;;;;22.60;8.60;;;;;;;13.06;80.96;100692.16;5079274;28;20032;-36
2023/09/28 00:53:00;;;;;;;24.30;9.93;;;;;;;13.02;81.44;100688.78;5071158;28;20129;-37
2023/09/28 00:55:27;;;;;;;26.85;10.38;;;;;;;13.02;81.46;100677.47;5060975;28;20045;-37
2023/09/28 00:57:57;;;;;;;31.38;11.05;;;;;;;13.04;81.69;100691.31;5067946;28;20040;-42
2023/09/28 01:00:28;;;;;;;31.48;11.15;;;;;;;13.09;81.52;100684.22;5078285;28;20047;-37
2023/09/28 01:02:57;;;;;;;24.10;10.25;;;;;;;13.09;81.42;100685.09;5076461;28;20043;-37
2023/09/28 01:05:33;;;;;;;20.95;8.48;;;;;;;13.11;81.53;100683.31;5074589;28;20050;-37
2023/09/28 01:08:11;;;;;;;17.63;8.10;;;;;;;13.15;81.02;100681.47;5067769;28;20528;-37
2023/09/28 01:10:40;;;;;;;16.27;7.57;;;;;;;13.15;80.46;100671.88;5054352;28;20596;-37
2023/09/28 01:13:12;;;;;;;17.35;8.88;;;;;;;13.14;80.18;100664.94;5069683;28;20064;-37
2023/09/28 01:15:47;;;;;;;22.85;7.97;;;;;;;13.13;80.45;100667.63;5077214;28;20169;-37
2023/09/28 01:18:15;;;;;;;22.98;9.90;;;;;;;13.10;80.34;100659.81;5069548;28;20036;-37
2023/09/28 01:20:45;;;;;;;20.33;9.53;;;;;;;13.09;80.63;100666.81;5052653;28;20593;-35
2023/09/28 01:23:11;;;;;;;23.17;8.93;;;;;;;12.92;80.51;100629.06;5079221;28;20630;-37
2023/09/28 01:25:39;;;;;;;18.55;7.43;;;;;;;13.06;80.27;100659.06;5074125;28;20040;-37
2023/09/28 01:28:06;;;;;;;14.95;6.97;;;;;;;13.08;80.46;100664.25;5077824;28;20622;-37
2023/09/28 01:30:33;;;;;;;20.13;8.38;;;;;;;13.05;80.07;100667.78;5053043;28;20476;-38
2023/09/28 01:33:00;;;;;;;17.30;7.95;;;;;;;13.05;80.16;100666.94;5066404;28;20068;-36
2023/09/28 01:35:28;;;;;;;18.92;6.95;;;;;;;13.04;80.16;100671.31;5081289;28;20048;-38
2023/09/28 01:38:18;;;;;;;20.98;8.05;;;;;;;13.04;79.88;100675.66;5061458;28;20040;-37
2023/09/28 01:40:46;;;;;;;16.20;7.50;;;;;;;13.02;79.89;100678.34;5078969;28;20041;-37
2023/09/28 01:43:12;;;;;;;15.27;7.85;;;;;;;13.01;79.93;100675.78;5080825;28;20055;-37
2023/09/28 01:45:38;;;;;;;15.80;6.60;;;;;;;13.00;80.07;100682.75;5061803;28;20071;-36
2023/09/28 01:48:05;;;;;;;16.33;6.80;;;;;;;12.99;80.06;100674.94;5074781;28;20044;-37
2023/09/28 01:50:32;;;;;;;14.98;7.32;;;;;;;13.00;80.09;100676.66;5076497;28;20044;-37
2023/09/28 01:52:58;;;;;;;15.00;6.05;;;;;;;12.97;79.99;100672.41;5082633;28;20099;-37
2023/09/28 01:55:24;;;;;;;14.32;6.35;;;;;;;12.94;79.98;100682.03;5071855;28;20591;-37
2023/09/28 01:57:50;;;;;;;15.07;6.32;;;;;;;12.93;79.95;100678.56;5086077;28;20051;-37
2023/09/28 02:00:20;;;;;;;18.33;6.53;;;;;;;12.91;80.16;100688.22;5077887;28;20052;-36
2023/09/28 02:02:47;;;;;;;10.68;5.10;;;;;;;12.90;80.24;100681.28;5078906;28;20035;-37
2023/09/28 02:05:18;;;;;;;9.82;5.68;;;;;;;12.86;80.02;100679.66;5055422;28;20467;-37
2023/09/28 02:07:45;;;;;;;15.30;5.80;;;;;;;12.87;80.03;100683.13;5069015;28;20068;-37
2023/09/28 02:10:12;;;;;;;14.77;6.07;;;;;;;12.87;79.82;100680.53;5078040;28;20420;-36
2023/09/28 02:12:46;;;;;;;10.93;6.00;;;;;;;12.87;80.15;100678.78;5054729;28;20041;-37
2023/09/28 02:15:15;;;;;;;13.90;5.88;;;;;;;12.81;80.16;100668.50;5081969;28;20047;-38
2023/09/28 02:17:44;;;;;;;12.20;6.03;;;;;;;12.84;80.13;100683.19;5067043;28;20040;-37
2023/09/28 02:20:15;;;;;;;9.35;5.18;;;;;;;12.80;80.10;100685.06;5079754;28;20047;-37
2023/09/28 02:22:46;;;;;;;13.52;5.63;;;;;;;12.73;80.20;100679.13;5079464;28;20524;-38
2023/09/28 02:25:15;;;;;;;12.00;5.57;;;;;;;12.65;80.09;100675.91;5063407;28;20051;-37
2023/09/28 02:27:42;;;;;;;12.32;5.70;;;;;;;12.71;80.23;100682.69;5071618;28;20178;-37
2023/09/28 02:30:11;;;;;;;12.18;5.70;;;;;;;12.70;79.98;100686.19;5078529;28;20594;-37
2023/09/28 02:32:39;;;;;;;10.25;5.38;;;;;;;12.70;79.96;100681.84;5079753;28;20048;-37
2023/09/28 02:35:07;;;;;;;9.60;5.10;;;;;;;12.69;80.05;100682.72;5075928;28;20040;-37
2023/09/28 02:37:34;;;;;;;10.43;5.10;;;;;;;12.65;79.96;100672.44;5073681;28;20037;-37
2023/09/28 02:40:05;;;;;;;15.75;5.45;;;;;;;12.68;79.84;100686.22;5071404;28;20051;-37
2023/09/28 02:42:36;;;;;;;8.93;4.97;;;;;;;12.47;79.90;100655.50;5072279;28;20077;-37
2023/09/28 02:45:11;;;;;;;11.15;5.85;;;;;;;12.60;80.31;100675.16;5070544;28;20698;-37
2023/09/28 02:47:41;;;;;;;11.02;5.35;;;;;;;12.59;80.50;100667.38;5076148;28;20587;-36
2023/09/28 02:50:09;;;;;;;11.68;6.32;;;;;;;12.54;80.38;100672.72;5076552;28;20036;-36
2023/09/28 02:52:37;;;;;;;12.95;6.68;;;;;;;12.51;80.41;100674.56;5080822;28;20067;-37
2023/09/28 02:55:07;;;;;;;17.77;8.15;;;;;;;12.35;80.79;100648.03;5076762;28;20119;-37
2023/09/28 02:57:35;;;;;;;18.45;8.00;;;;;;;12.50;81.00;100678.91;5070768;28;20041;-37
2023/09/28 03:00:11;;;;;;;18.70;8.27;;;;;;;12.20;81.06;100625.78;5065317;28;20040;-37
2023/09/28 03:02:37;;;;;;;19.02;8.15;;;;;;;12.55;80.77;100681.41;5079052;28;20039;-38
2023/09/28 03:05:04;;;;;;;17.10;8.07;;;;;;;12.54;80.67;100680.53;5066665;28;20531;-37
2023/09/28 03:07:31;;;;;;;15.20;7.63;;;;;;;12.56;80.67;100681.34;5079536;28;20060;-36
2023/09/28 03:09:57;;;;;;;12.88;6.70;;;;;;;12.58;80.78;100683.91;5076157;28;20040;-36
2023/09/28 03:12:22;;;;;;;14.13;6.05;;;;;;;12.52;80.64;100681.47;5075476;28;20102;-37
2023/09/28 03:14:48;;;;;;;12.40;6.43;;;;;;;12.51;80.88;100679.78;5082398;28;20430;-36
2023/09/28 03:17:14;;;;;;;11.73;6.10;;;;;;;12.48;80.77;100667.66;5059450;28;20107;-36
2023/09/28 03:19:40;;;;;;;16.27;6.75;;;;;;;12.48;80.67;100670.25;5067417;28;20102;-37
2023/09/28 03:22:06;;;;;;;12.82;6.25;;;;;;;12.49;80.59;100674.59;5070746;28;20564;-38
2023/09/28 03:24:32;;;;;;;13.20;6.72;;;;;;;12.48;80.35;100670.25;5065859;28;20492;-36
2023/09/28 03:26:59;;;;;;;11.93;5.90;;;;;;;12.50;80.20;100668.47;5070423;28;20564;-37
2023/09/28 03:29:25;;;;;;;12.02;5.63;;;;;;;12.50;80.38;100681.53;5068291;28;20505;-37
2023/09/28 03:31:50;;;;;;;10.98;4.97;;;;;;;12.50;80.05;100684.13;5036971;28;20067;-37
2023/09/28 03:34:16;;;;;;;8.95;5.05;;;;;;;12.50;80.23;100681.53;5065478;28;20052;-37
2023/09/28 03:36:42;;;;;;;7.45;4.63;;;;;;;12.44;79.88;100659.94;5069743;28;20051;-37
2023/09/28 03:39:10;;;;;;;9.38;4.88;;;;;;;12.53;79.96;100675.34;5070220;28;20036;-37
2023/09/28 03:41:37;;;;;;;13.55;5.38;;;;;;;12.56;79.75;100675.28;5069151;28;20040;-36
2023/09/28 03:44:03;;;;;;;10.15;4.28;;;;;;;12.57;79.79;100676.97;5067247;28;20454;-37
2023/09/28 03:46:30;;;;;;;8.07;4.88;;;;;;;12.55;79.56;100679.66;5080282;28;20036;-36
2023/09/28 03:48:56;;;;;;;8.35;4.78;;;;;;;12.56;79.35;100676.13;5075674;28;20083;-37
2023/09/28 03:51:22;;;;;;;10.98;5.00;;;;;;;12.51;79.44;100672.78;5074814;28;20558;-37
2023/09/28 03:53:47;;;;;;;13.30;5.18;;;;;;;12.59;79.34;100683.03;5070600;28;20041;-44
2023/09/28 03:56:13;;;;;;;12.75;4.45;;;;;;;12.58;79.44;100683.91;5067897;28;20123;-36
2023/09/28 03:58:39;;;;;;;7.93;4.72;;;;;;;12.56;79.47;100680.50;5072051;28;20037;-37
2023/09/28 04:01:07;;;;;;;8.35;4.80;;;;;;;12.58;79.43;100683.91;5078390;28;20040;-36
2023/09/28 04:03:36;;;;;;;11.18;4.97;;;;;;;12.62;79.08;100685.53;5069230;28;20036;-36
2023/09/28 04:06:02;;;;;;;9.48;5.03;;;;;;;12.48;78.79;100658.97;5084505;28;20472;-36
2023/09/28 04:08:28;;;;;;;13.30;5.38;;;;;;;12.47;78.91;100657.25;5080330;28;20056;-37
2023/09/28 04:10:55;;;;;;;10.68;5.03;;;;;;;12.69;78.85;100689.69;5075685;28;20507;-38
2023/09/28 04:13:21;;;;;;;8.27;5.15;;;;;;;12.69;78.57;100690.56;5072858;28;20404;-36
2023/09/28 04:15:48;;;;;;;9.35;4.90;;;;;;;12.71;78.36;100685.31;5075738;28;20044;-37
2023/09/28 04:18:14;;;;;;;8.63;5.03;;;;;;;12.65;78.08;100667.22;5076577;28;20431;-36
2023/09/28 04:20:41;;;;;;;10.85;4.78;;;;;;;12.87;77.75;100694.44;5076703;28;20051;-36
2023/09/28 04:23:08;;;;;;;9.60;5.20;;;;;;;12.91;77.52;100700.41;5066261;28;20511;-37
2023/09/28 04:25:35;;;;;;;8.30;4.57;;;;;;;12.93;77.27;100702.06;5075634;28;20072;-36
2023/09/28 04:28:01;;;;;;;8.10;4.05;;;;;;;12.95;76.86;100689.00;5066282;28;20048;-37
2023/09/28 04:30:27;;;;;;;8.30;4.22;;;;;;;12.96;76.42;100694.19;5074117;28;20035;-37
2023/09/28 04:32:54;;;;;;;8.43;4.68;;;;;;;12.98;76.37;100681.91;5075373;28;20059;-36
2023/09/28 04:35:20;;;;;;;11.98;4.63;;;;;;;13.04;76.24;100680.88;5065590;28;20047;-36
2023/09/28 04:37:50;;;;;;;8.90;4.97;;;;;;;13.08;76.26;100678.13;5074084;28;20060;-37
2023/09/28 04:40:16;;;;;;;14.15;5.85;;;;;;;13.00;75.84;100650.56;5060428;28;20122;-37
2023/09/28 04:42:42;;;;;;;11.52;5.55;;;;;;;13.22;75.51;100680.41;5074529;28;20393;-36
2023/09/28 04:45:09;;;;;;;9.05;5.30;;;;;;;13.32;75.50;100680.97;5073600;28;20034;-37
2023/09/28 04:47:36;;;;;;;13.68;5.03;;;;;;;13.39;75.05;100672.06;5068239;28;20052;-37
2023/09/28 04:50:03;;;;;;;11.50;5.35;;;;;;;13.54;74.65;100677.69;5072286;28;20043;-37
2023/09/28 04:52:30;;;;;;;13.82;5.68;;;;;;;13.48;74.48;100645.66;5083667;28;20039;-38
2023/09/28 04:54:57;;;;;;;10.27;4.88;;;;;;;13.80;73.71;100689.09;5063697;28;20045;-37
2023/09/28 04:57:25;;;;;;;10.82;4.57;;;;;;;13.88;73.08;100689.69;5063871;28;20054;-37
2023/09/28 04:59:51;;;;;;;6.13;4.20;;;;;;;13.78;72.77;100656.91;5068685;28;20776;-36
2023/09/28 05:02:17;;;;;;;8.10;4.18;;;;;;;13.90;72.47;100660.00;5086769;28;20116;-36
2023/09/28 05:04:43;;;;;;;5.85;4.18;;;;;;;13.96;71.84;100659.81;5077872;28;20048;-37
2023/09/28 05:07:09;;;;;;;8.75;4.03;;;;;;;14.08;71.31;100682.06;5081686;28;20143;-37
2023/09/28 05:09:35;;;;;;;7.63;4.38;;;;;;;14.12;70.83;100685.44;5079209;28;20162;-36
2023/09/28 05:12:02;;;;;;;10.40;4.68;;;;;;;14.22;70.75;100685.09;5059484;28;20061;-37
2023/09/28 05:14:28;;;;;;;8.32;4.20;;;;;;;14.33;70.88;100682.13;5075613;28;20131;-37
2023/09/28 05:16:55;;;;;;;8.07;4.55;;;;;;;14.46;70.35;100683.44;5081297;28;20093;-36
2023/09/28 05:19:21;;;;;;;6.45;4.13;;;;;;;14.54;69.79;100688.41;5076208;28;20044;-38
2023/09/28 05:21:48;;;;;;;8.48;4.65;;;;;;;14.51;69.35;100691.97;5078796;28;20512;-37
2023/09/28 05:24:14;;;;;;;6.70;3.70;;;;;;;14.51;69.04;100691.97;5065327;28;20036;-37
2023/09/28 05:26:42;;;;;;;6.47;4.00;;;;;;;14.59;68.66;100687.34;5080014;28;20075;-37
2023/09/28 05:29:08;;;;;;;6.63;3.85;;;;;;;14.68;68.20;100684.41;5074949;28;20135;-36
2023/09/28 05:31:35;;;;;;;7.22;3.92;;;;;;;14.83;67.81;100696.94;5065399;28;20039;-38
2023/09/28 05:34:01;;;;;;;7.95;4.78;;;;;;;15.03;67.04;100695.38;5081340;28;20043;-37
2023/09/28 05:36:27;;;;;;;8.98;3.90;;;;;;;15.28;66.30;100694.41;5074152;28;20174;-36
2023/09/28 05:38:52;;;;;;;10.18;4.70;;;;;;;15.54;65.52;100701.34;5080363;28;21009;-37
2023/09/28 05:41:18;;;;;;;5.90;4.35;;;;;;;16.00;64.46;100696.88;5086645;28;20060;-37
2023/09/28 05:43:44;;;;;;;7.75;4.07;;;;;;;16.23;63.42;100695.94;5061271;28;20033;-37
2023/09/28 05:46:10;;;;;;;9.35;4.15;;;;;;;16.37;62.74;100693.59;5056904;28;20094;-37
2023/09/28 05:48:36;;;;;;;8.27;4.40;;;;;;;16.76;61.99;100693.69;5068758;28;20045;-37
2023/09/28 05:51:03;;;;;;;7.28;4.20;;;;;;;17.31;60.33;100679.81;5058534;28;20055;-37
2023/09/28 05:53:29;;;;;;;7.30;4.32;;;;;;;18.10;58.70;100678.66;5080982;28;20459;-36
2023/09/28 05:55:55;;;;;;;8.38;4.28;;;;;;;18.71;56.78;100682.63;5078875;28;20036;-36
2023/09/28 05:58:22;;;;;;;7.43;4.45;;;;;;;19.05;54.89;100688.66;5070433;28;20048;-37
2023/09/28 06:00:47;;;;;;;6.75;4.40;;;;;;;19.23;53.27;100667.53;5068708;28;20062;-37
2023/09/28 06:03:13;;;;;;;7.28;4.18;;;;;;;19.45;52.44;100691.81;5067425;28;20044;-36
2023/09/28 06:05:40;;;;;;;7.88;3.80;;;;;;;19.68;51.60;100687.94;5069232;28;20037;-36
2023/09/28 06:08:06;;;;;;;6.63;4.20;;;;;;;20.00;50.91;100662.31;5072004;28;20059;-37
2023/09/28 06:10:33;;;;;;;5.32;3.85;;;;;;;20.21;50.17;100669.84;5073542;28;20048;-38
2023/09/28 06:13:19;;;;;;;10.30;4.18;;;;;;;20.44;49.36;100678.25;5304479;22;22422;-42
2023/09/28 06:15:45;;;;;;;10.05;4.40;;;;;;;20.93;48.75;100684.94;4954809;28;20047;-44
2023/09/28 06:18:11;;;;;;;8.07;4.47;;;;;;;21.77;47.29;100675.19;4948669;28;20058;-43
2023/09/28 06:20:37;;;;;;;8.50;4.00;;;;;;;22.56;45.84;100663.81;4948673;28;20093;-43
2023/09/28 06:23:03;;;;;;;8.93;4.85;;;;;;;23.35;44.67;100685.63;4949727;28;20047;-42
2023/09/28 06:25:30;;;;;;;10.80;4.88;;;;;;;24.04;43.26;100665.53;4951852;28;20071;-43
2023/09/28 06:27:55;;;;;;;7.45;4.20;;;;;;;24.68;41.78;100676.63;4949822;29;20094;-41
2023/09/28 06:30:21;;;;;;;9.95;4.55;;;;;;;25.30;41.18;100677.06;4932734;29;20038;-44
2023/09/28 06:32:47;;;;;;;8.35;5.25;;;;;;;25.26;40.17;100676.47;4938385;29;20600;-43
2023/09/28 06:35:13;;;;;;;12.48;5.55;;;;;;;24.95;40.12;100671.00;4949883;29;20955;-43
2023/09/28 06:37:39;;;;;;;9.20;4.97;;;;;;;24.75;40.32;100637.97;4931177;28;20179;-42
2023/09/28 06:40:06;;;;;;;9.82;5.18;;;;;;;25.24;39.60;100645.59;4933737;29;20094;-42
2023/09/28 06:42:32;;;;;;;7.00;4.40;;;;;;;25.69;38.93;100647.25;4932267;29;20054;-45
2023/09/28 06:44:57;;;;;;;9.43;5.15;;;;;;;25.69;38.90;100657.91;4932610;29;20031;-44
2023/09/28 06:47:23;;;;;;;7.65;4.43;;;;;;;25.42;38.18;100652.13;4946054;29;20134;-43
2023/09/28 06:49:49;;;;;;;7.63;4.65;;;;;;;24.85;38.80;100628.28;4935454;29;20050;-46
2023/09/28 06:52:15;;;;;;;8.25;4.70;;;;;;;24.68;38.75;100655.34;4932001;28;20050;-45
2023/09/28 06:54:42;;;;;;;8.48;5.13;;;;;;;24.66;38.80;100601.41;5009120;28;20037;-44
2023/09/28 06:57:08;;;;;;;10.35;4.90;;;;;;;25.33;37.85;100604.94;4997126;28;20531;-43
2023/09/28 06:59:34;;;;;;;7.93;3.85;;;;;;;25.54;37.58;100642.28;4986077;28;20037;-43
2023/09/28 07:02:00;;;;;;;5.30;4.00;;;;;;;25.70;37.41;100630.25;4993363;28;20050;-46
2023/09/28 07:04:25;;;;;;;7.45;3.65;;;;;;;25.39;37.70;100631.03;5020271;28;20037;-42
2023/09/28 07:06:51;;;;;;;7.93;3.75;;;;;;;25.03;37.75;100626.84;5008834;28;20564;-43
2023/09/28 07:09:17;;;;;;;5.75;4.07;;;;;;;24.61;38.55;100612.41;5024849;28;20030;-43
2023/09/28 07:11:44;;;;;;;6.95;3.85;;;;;;;24.41;39.07;100629.94;5005904;28;20532;-41
2023/09/28 07:14:10;;;;;;;6.70;4.05;;;;;;;24.47;39.23;100599.34;5008562;28;20135;-41
2023/09/28 07:16:38;;;;;;;5.38;3.42;;;;;;;24.35;38.86;100619.75;5009260;28;20860;-44
2023/09/28 07:19:05;;;;;;;9.52;3.75;;;;;;;24.48;39.07;100609.03;5010113;28;20129;-43
2023/09/28 07:21:31;;;;;;;7.78;3.60;;;;;;;24.65;38.58;100607.72;5009797;28;20128;-44
2023/09/28 07:23:56;;;;;;;8.65;3.83;;;;;;;25.17;38.26;100628.44;5024276;28;20140;-43
2023/09/28 07:26:22;;;;;;;6.68;3.60;;;;;;;25.75;37.44;100621.88;5008790;28;20750;-44
2023/09/28 07:28:48;;;;;;;7.28;3.90;;;;;;;26.18;36.91;100603.16;5008763;28;20041;-42
2023/09/28 07:31:15;;;;;;;9.57;3.72;;;;;;;27.69;35.50;100629.00;5024839;28;20041;-42
2023/09/28 07:33:42;;;;;;;9.05;3.67;;;;;;;28.60;33.90;100627.69;5009427;28;20044;-44
2023/09/28 07:36:08;;;;;;;11.85;3.80;;;;;;;28.63;33.54;100630.91;4989033;28;20042;-44
2023/09/28 07:38:34;;;;;;;5.72;3.42;;;;;;;29.16;32.59;100624.94;4986312;28;20041;-44
2023/09/28 07:41:01;;;;;;;6.35;3.78;;;;;;;29.70;31.18;100628.59;5009667;28;20099;-43
2023/09/28 07:43:29;;;;;;;6.00;3.57;;;;;;;29.36;31.72;100623.88;5009340;28;20041;-43
2023/09/28 07:45:56;;;;;;;4.95;3.70;;;;;;;29.95;30.83;100614.44;5024668;28;20045;-44
2023/09/28 07:48:22;;;;;;;7.75;3.92;;;;;;;29.82;30.93;100601.41;5012195;28;20114;-44
2023/09/28 07:50:48;;;;;;;6.07;3.55;;;;;;;29.30;31.61;100610.22;5044599;28;20037;-45
2023/09/28 07:53:14;;;;;;;9.43;4.30;;;;;;;28.74;32.18;100618.38;5026500;28;20041;-46
2023/09/28 07:55:40;;;;;;;12.70;4.03;;;;;;;28.88;31.75;100581.28;5024598;28;20034;-45
2023/09/28 07:58:07;;;;;;;8.50;3.80;;;;;;;28.77;31.91;100605.56;5022730;28;20042;-45
2023/09/28 08:00:33;;;;;;;8.20;3.80;;;;;;;28.68;32.27;100595.69;5008916;28;20034;-43
2023/09/28 08:02:58;;;;;;;6.28;3.70;;;;;;;28.77;32.12;100600.19;5009014;28;20082;-45
2023/09/28 08:05:24;;;;;;;9.00;3.95;;;;;;;28.73;31.81;100596.13;5023752;28;20133;-45
2023/09/28 08:07:50;;;;;;;5.30;3.67;;;;;;;29.36;31.55;100604.31;5009145;28;20073;-48
2023/09/28 08:10:16;;;;;;;11.25;3.80;;;;;;;29.95;30.40;100603.72;5018149;28;20038;-44
2023/09/28 08:12:43;;;;;;;4.65;3.20;;;;;;;29.71;30.48;100598.97;5006395;28;20052;-48
2023/09/28 08:15:10;;;;;;;7.70;3.03;;;;;;;30.03;30.41;100587.72;5014706;28;20050;-47
2023/09/28 08:17:41;;;;;;;4.75;3.08;;;;;;;29.71;30.24;100593.59;5005415;28;20591;-44
2023/09/28 08:20:07;;;;;;;7.60;3.25;;;;;;;28.83;31.14;100566.63;5020633;28;20041;-46
2023/09/28 08:22:35;;;;;;;5.95;2.63;;;;;;;28.66;31.39;100581.59;5005084;28;20057;-48
2023/09/28 08:25:05;;;;;;;8.27;3.45;;;;;;;29.48;30.24;100587.84;5005638;28;20129;-43
2023/09/28 08:27:31;;;;;;;7.28;3.00;;;;;;;29.70;30.16;100580.34;5004786;28;20107;-45
2023/09/28 08:29:57;;;;;;;6.25;2.92;;;;;;;29.97;29.36;100560.66;5005179;28;20057;-46
2023/09/28 08:32:23;;;;;;;5.82;3.17;;;;;;;29.82;29.50;100573.75;5006494;28;20046;-45
2023/09/28 08:34:49;;;;;;;6.60;3.17;;;;;;;29.96;29.65;100575.91;5005540;28;20156;-48
2023/09/28 08:37:15;;;;;;;7.03;3.28;;;;;;;30.42;29.29;100582.75;5009154;28;20665;-42
2023/09/28 08:39:41;;;;;;;10.35;3.30;;;;;;;31.20;28.14;100585.38;5000692;28;20061;-45
2023/09/28 08:42:12;;;;;;;5.25;2.88;;;;;;;31.98;27.29;100568.69;5010126;28;20045;-43
2023/09/28 08:44:38;;;;;;;6.20;2.72;;;;;;;32.27;26.89;100557.44;4977416;28;20070;-42
2023/09/28 08:47:16;;;;;;;9.10;2.75;;;;;;;32.89;26.34;100552.19;4993958;28;20049;-46
2023/09/28 08:49:47;;;;;;;;;;;;;;;32.94;26.10;100552.50;5010871;28;20497;-44
2023/09/28 08:52:14;;;;;;;4.57;2.70;;;;;;;32.98;25.89;100558.38;5011248;28;19928;-45
2023/09/28 08:54:41;;;;;;;5.00;3.05;;;;;;;33.33;25.49;100552.50;4994748;28;20045;-42
2023/09/28 08:57:09;;;;;;;6.30;2.95;;;;;;;34.52;24.09;100558.06;5023732;28;20038;-45
2023/09/28 08:59:37;;;;;;;4.80;2.70;;;;;;;34.55;23.49;100535.22;5012274;28;20107;-43
2023/09/28 09:02:03;;;;;;;7.18;3.25;;;;;;;33.84;24.56;100539.31;4995806;28;20041;-46
2023/09/28 09:04:35;;;;;;;5.35;2.97;;;;;;;33.99;24.35;100540.19;5012794;28;20057;-48
2023/09/28 09:07:03;;;;;;;4.78;3.00;;;;;;;33.07;24.92;100541.19;5030250;28;20041;-44
2023/09/28 09:09:29;;;;;;;6.82;2.88;;;;;;;33.42;24.40;100520.91;5020111;28;20048;-42
2023/09/28 09:11:57;;;;;;;11.10;3.25;;;;;;;32.90;25.17;100508.09;5011810;28;20096;-43
2023/09/28 09:14:28;;;;;;;5.38;2.67;;;;;;;33.34;24.89;100527.19;5019342;28;20815;-43
2023/09/28 09:16:54;;;;;;;10.45;3.17;;;;;;;33.84;24.61;100531.22;4995633;28;20195;-43
2023/09/28 09:19:19;;;;;;;4.00;2.70;;;;;;;33.65;24.48;100527.16;4996429;28;20543;-47
2023/09/28 09:21:45;;;;;;;6.68;2.92;;;;;;;33.33;24.96;100530.09;5027709;28;20054;-45
2023/09/28 09:24:18;;;;;;;2.80;2.40;;;;;;;33.53;24.76;100526.75;5010315;28;20111;-42
2023/09/28 09:26:46;;;;;;;4.03;3.25;;;;;;;32.48;25.72;100516.47;5013881;28;20069;-47
2023/09/28 09:29:15;;;;;;;3.75;3.00;;;;;;;31.63;26.63;100520.63;5012868;28;20037;-43
2023/09/28 09:31:47;;;;;;;4.38;2.78;;;;;;;31.67;26.90;100511.19;4993615;28;20136;-42
2023/09/28 09:34:17;;;;;;;8.23;3.20;;;;;;;31.51;27.16;100512.00;5027562;28;20052;-42
2023/09/28 09:36:51;;;;;;;8.40;2.50;;;;;;;31.91;26.43;100504.97;4995713;28;20798;-45
2023/09/28 09:39:25;;;;;;;4.43;2.88;;;;;;;31.68;26.41;100495.91;5009272;28;20492;-43
2023/09/28 09:41:55;;;;;;;5.18;2.92;;;;;;;32.14;25.98;100492.50;5009986;28;20042;-42
2023/09/28 09:44:23;;;;;;;6.82;2.60;;;;;;;31.74;26.54;100492.56;5007464;28;20043;-44
2023/09/28 09:46:52;;;;;;;4.25;2.50;;;;;;;31.80;26.26;100492.72;5009559;28;20052;-43
2023/09/28 09:49:19;;;;;;;5.72;2.65;;;;;;;31.71;26.55;100487.53;4988824;28;20037;-40
2023/09/28 09:51:46;;;;;;;4.80;2.95;;;;;;;31.66;26.30;100471.91;5005343;28;20129;-43
2023/09/28 09:54:13;;;;;;;7.07;2.55;;;;;;;32.29;25.77;100488.09;5004213;28;20042;-47
2023/09/28 09:56:43;;;;;;;5.50;3.30;;;;;;;33.20;24.86;100492.94;5006426;28;20099;-45
2023/09/28 09:59:12;;;;;;;6.68;2.67;;;;;;;33.36;24.50;100500.06;5001582;28;20136;-44
2023/09/28 10:01:39;;;;;;;3.90;2.25;;;;;;;33.19;24.01;100483.16;5005319;28;20629;-48
2023/09/28 10:04:12;;;;;;;3.55;2.30;;;;;;;33.43;23.95;100487.53;4967903;28;20389;-42
2023/09/28 10:06:39;;;;;;;3.90;2.65;;;;;;;33.99;23.53;100492.44;5005834;28;20129;-43
2023/09/28 10:09:10;;;;;;;5.85;2.80;;;;;;;34.20;23.16;100466.63;5003677;28;20449;-42
2023/09/28 10:11:40;;;;;;;2.92;2.55;;;;;;;34.42;23.22;100488.13;5005535;28;20054;-46
2023/09/28 10:14:08;;;;;;;3.38;2.65;;;;;;;34.74;22.77;100491.47;5003952;28;20052;-43
2023/09/28 10:16:37;;;;;;;4.40;2.58;;;;;;;35.00;22.08;100482.81;4988402;28;20050;-45
2023/09/28 10:19:05;;;;;;;5.45;2.97;;;;;;;34.75;22.62;100480.47;4988034;28;20100;-44
2023/09/28 10:21:38;;;;;;;4.28;2.90;;;;;;;34.90;22.46;100472.31;4971657;28;20468;-43
2023/09/28 10:24:08;;;;;;;6.47;2.72;;;;;;;35.09;22.41;100470.84;4999471;28;20599;-47
2023/09/28 10:26:35;;;;;;;7.20;3.10;;;;;;;35.56;21.73;100467.59;5003817;28;20057;-43
2023/09/28 10:29:08;;;;;;;10.77;3.00;;;;;;;35.71;21.84;100468.34;5002897;28;20504;-45
2023/09/28 10:31:41;;;;;;;3.20;2.72;;;;;;;36.58;20.68;100463.31;5003816;28;20428;-43
2023/09/28 10:34:08;;;;;;;6.07;2.78;;;;;;;35.56;21.37;100475.69;5003709;28;20457;-43
2023/09/28 10:36:39;;;;;;;4.68;2.72;;;;;;;34.13;21.96;100454.84;4971629;28;20049;-45
2023/09/28 10:39:15;;;;;;;7.97;2.60;;;;;;;34.74;21.95;100456.34;4984798;28;20046;-45
2023/09/28 10:41:49;;;;;;;3.93;2.30;;;;;;;34.70;21.76;100460.47;5003397;28;20107;-44
2023/09/28 10:44:20;;;;;;;3.72;2.55;;;;;;;33.88;22.42;100438.94;5001301;28;20181;-46
2023/09/28 10:46:50;;;;;;;6.85;2.75;;;;;;;33.99;22.41;100449.28;5016789;28;20050;-48
2023/09/28 10:49:27;;;;;;;5.38;2.60;;;;;;;33.94;22.41;100440.06;4998580;28;20034;-45
2023/09/28 10:51:56;;;;;;;4.32;2.20;;;;;;;33.93;22.28;100441.91;5004831;28;20073;-43
2023/09/28 10:54:24;;;;;;;3.15;2.50;;;;;;;33.99;22.15;100443.88;5001269;28;20042;-42
2023/09/28 10:56:50;;;;;;;;;;;;;;;34.04;21.66;100446.84;5005377;28;20041;-44
2023/09/28 10:59:18;;;;;;;2.42;2.20;;;;;;;33.45;22.55;100437.78;5003230;28;19917;-41
2023/09/28 11:01:45;;;;;;;5.20;2.85;;;;;;;33.19;22.90;100438.19;5005285;28;20077;-40
2023/09/28 11:04:15;;;;;;;6.00;2.60;;;;;;;34.43;21.67;100434.94;5004361;28;20038;-42
2023/09/28 11:06:43;;;;;;;4.15;2.30;;;;;;;34.94;21.82;100432.22;4989738;28;20108;-45
2023/09/28 11:09:11;;;;;;;8.18;2.95;;;;;;;35.42;20.99;100431.47;4999926;28;20068;-44
2023/09/28 11:11:39;;;;;;;5.90;2.60;;;;;;;34.24;22.04;100428.25;4992891;28;20045;-40
2023/09/28 11:14:06;;;;;;;5.70;2.72;;;;;;;33.97;22.46;100426.16;4983251;28;20320;-47
2023/09/28 11:16:38;;;;;;;5.38;2.85;;;;;;;33.87;22.64;100406.72;4988576;28;20472;-43
2023/09/28 11:19:04;;;;;;;4.25;2.35;;;;;;;33.60;22.76;100416.28;5000994;28;20092;-46
2023/09/28 11:21:31;;;;;;;5.90;2.80;;;;;;;32.60;23.78;100407.38;5004917;28;20517;-44
2023/09/28 11:23:58;;;;;;;11.63;2.78;;;;;;;31.70;24.58;100410.53;5008540;28;20045;-54